sensor_id;sensor_type;location;lat;lon;timestamp;P1;durP1;ratioP1;P2;durP2;ratioP2
79128;SDS011;68529;43.286;23.360;2024-02-04T00:02:01;4.20;;;3.80;;
79128;SDS011;68529;43.286;23.360;2024-02-04T00:04:28;3.93;;;3.43;;
79128;SDS011;68529;43.286;23.360;2024-02-04T00:06:54;3.83;;;3.10;;
79128;SDS011;68529;43.286;23.360;2024-02-04T00:09:19;3.57;;;3.13;;
79128;SDS011;68529;43.286;23.360;2024-02-04T00:11:45;4.10;;;3.63;;
79128;SDS011;68529;43.286;23.360;2024-02-04T00:14:11;3.47;;;2.90;;
79128;SDS011;68529;43.286;23.360;2024-02-04T00:16:36;3.87;;;2.83;;
79128;SDS011;68529;43.286;23.360;2024-02-04T00:19:02;3.83;;;3.10;;
79128;SDS011;68529;43.286;23.360;2024-02-04T00:21:27;5.20;;;3.60;;
79128;SDS011;68529;43.286;23.360;2024-02-04T00:23:52;3.63;;;3.10;;
79128;SDS011;68529;43.286;23.360;2024-02-04T00:26:18;4.87;;;3.17;;
79128;SDS011;68529;43.286;23.360;2024-02-04T00:28:43;4.27;;;3.00;;
79128;SDS011;68529;43.286;23.360;2024-02-04T00:31:09;3.47;;;3.17;;
79128;SDS011;68529;43.286;23.360;2024-02-04T00:33:34;4.20;;;3.27;;
79128;SDS011;68529;43.286;23.360;2024-02-04T00:36:00;4.40;;;3.50;;
79128;SDS011;68529;43.286;23.360;2024-02-04T00:38:26;4.13;;;3.53;;
79128;SDS011;68529;43.286;23.360;2024-02-04T00:40:51;3.57;;;3.20;;
79128;SDS011;68529;43.286;23.360;2024-02-04T00:43:17;5.00;;;2.90;;
79128;SDS011;68529;43.286;23.360;2024-02-04T00:45:43;3.47;;;2.60;;
79128;SDS011;68529;43.286;23.360;2024-02-04T00:48:08;3.50;;;2.67;;
79128;SDS011;68529;43.286;23.360;2024-02-04T00:50:34;3.00;;;2.70;;
79128;SDS011;68529;43.286;23.360;2024-02-04T00:52:59;4.23;;;3.23;;
79128;SDS011;68529;43.286;23.360;2024-02-04T00:55:25;2.80;;;2.57;;
79128;SDS011;68529;43.286;23.360;2024-02-04T00:57:50;3.70;;;2.60;;
79128;SDS011;68529;43.286;23.360;2024-02-04T01:00:15;3.87;;;2.97;;
79128;SDS011;68529;43.286;23.360;2024-02-04T01:02:41;3.17;;;2.83;;
79128;SDS011;68529;43.286;23.360;2024-02-04T01:05:07;2.90;;;2.53;;
79128;SDS011;68529;43.286;23.360;2024-02-04T01:07:32;2.80;;;2.60;;
79128;SDS011;68529;43.286;23.360;2024-02-04T01:09:58;3.43;;;2.73;;
79128;SDS011;68529;43.286;23.360;2024-02-04T01:12:23;3.07;;;2.77;;
79128;SDS011;68529;43.286;23.360;2024-02-04T01:14:49;3.43;;;2.67;;
79128;SDS011;68529;43.286;23.360;2024-02-04T01:17:14;3.70;;;3.10;;
79128;SDS011;68529;43.286;23.360;2024-02-04T01:19:39;3.00;;;2.70;;
79128;SDS011;68529;43.286;23.360;2024-02-04T01:22:05;3.23;;;2.87;;
79128;SDS011;68529;43.286;23.360;2024-02-04T01:24:31;3.37;;;2.63;;
79128;SDS011;68529;43.286;23.360;2024-02-04T01:26:56;3.63;;;2.90;;
79128;SDS011;68529;43.286;23.360;2024-02-04T01:29:22;3.23;;;2.93;;
79128;SDS011;68529;43.286;23.360;2024-02-04T01:31:47;3.20;;;2.53;;
79128;SDS011;68529;43.286;23.360;2024-02-04T01:34:13;3.17;;;2.70;;
79128;SDS011;68529;43.286;23.360;2024-02-04T01:36:38;2.80;;;2.50;;
79128;SDS011;68529;43.286;23.360;2024-02-04T01:39:03;2.70;;;2.50;;
79128;SDS011;68529;43.286;23.360;2024-02-04T01:41:30;2.47;;;2.27;;
79128;SDS011;68529;43.286;23.360;2024-02-04T01:43:55;2.37;;;2.17;;
79128;SDS011;68529;43.286;23.360;2024-02-04T01:46:21;3.60;;;2.63;;
79128;SDS011;68529;43.286;23.360;2024-02-04T01:48:47;2.70;;;2.50;;
79128;SDS011;68529;43.286;23.360;2024-02-04T01:51:13;2.40;;;2.20;;
79128;SDS011;68529;43.286;23.360;2024-02-04T01:53:42;2.80;;;2.60;;
79128;SDS011;68529;43.286;23.360;2024-02-04T01:56:10;3.33;;;2.50;;
79128;SDS011;68529;43.286;23.360;2024-02-04T01:58:37;4.10;;;2.47;;
79128;SDS011;68529;43.286;23.360;2024-02-04T02:01:03;3.90;;;2.53;;
79128;SDS011;68529;43.286;23.360;2024-02-04T02:03:28;2.57;;;2.37;;
79128;SDS011;68529;43.286;23.360;2024-02-04T02:05:59;3.63;;;2.43;;
79128;SDS011;68529;43.286;23.360;2024-02-04T02:08:25;3.13;;;2.60;;
79128;SDS011;68529;43.286;23.360;2024-02-04T02:10:51;2.90;;;2.60;;
79128;SDS011;68529;43.286;23.360;2024-02-04T02:13:28;2.47;;;2.13;;
79128;SDS011;68529;43.286;23.360;2024-02-04T02:16:30;3.90;;;2.50;;
79128;SDS011;68529;43.286;23.360;2024-02-04T02:18:50;2.53;;;2.33;;
79128;SDS011;68529;43.286;23.360;2024-02-04T02:24:32;3.60;;;2.70;;
79128;SDS011;68529;43.286;23.360;2024-02-04T02:26:58;4.73;;;3.33;;
79128;SDS011;68529;43.286;23.360;2024-02-04T02:29:24;3.60;;;2.87;;
79128;SDS011;68529;43.286;23.360;2024-02-04T02:31:49;4.03;;;3.40;;
79128;SDS011;68529;43.286;23.360;2024-02-04T02:34:15;3.33;;;3.03;;
79128;SDS011;68529;43.286;23.360;2024-02-04T02:36:45;3.20;;;2.90;;
79128;SDS011;68529;43.286;23.360;2024-02-04T02:39:17;3.47;;;2.93;;
79128;SDS011;68529;43.286;23.360;2024-02-04T02:41:47;4.80;;;3.10;;
79128;SDS011;68529;43.286;23.360;2024-02-04T02:44:18;4.67;;;3.10;;
79128;SDS011;68529;43.286;23.360;2024-02-04T02:46:45;3.57;;;2.90;;
79128;SDS011;68529;43.286;23.360;2024-02-04T02:49:11;3.80;;;2.90;;
79128;SDS011;68529;43.286;23.360;2024-02-04T02:51:37;3.13;;;2.87;;
79128;SDS011;68529;43.286;23.360;2024-02-04T02:54:02;4.00;;;3.20;;
79128;SDS011;68529;43.286;23.360;2024-02-04T02:56:28;4.77;;;3.33;;
79128;SDS011;68529;43.286;23.360;2024-02-04T02:58:53;3.83;;;3.10;;
79128;SDS011;68529;43.286;23.360;2024-02-04T03:01:18;3.57;;;2.80;;
79128;SDS011;68529;43.286;23.360;2024-02-04T03:03:44;4.87;;;3.03;;
79128;SDS011;68529;43.286;23.360;2024-02-04T03:06:09;3.90;;;3.20;;
79128;SDS011;68529;43.286;23.360;2024-02-04T03:08:34;4.13;;;3.13;;
79128;SDS011;68529;43.286;23.360;2024-02-04T03:11:00;3.00;;;2.60;;
79128;SDS011;68529;43.286;23.360;2024-02-04T03:13:25;3.27;;;2.93;;
79128;SDS011;68529;43.286;23.360;2024-02-04T03:15:50;3.60;;;2.97;;
79128;SDS011;68529;43.286;23.360;2024-02-04T03:18:16;3.63;;;3.23;;
79128;SDS011;68529;43.286;23.360;2024-02-04T03:20:41;5.07;;;3.17;;
79128;SDS011;68529;43.286;23.360;2024-02-04T03:23:07;3.37;;;2.97;;
79128;SDS011;68529;43.286;23.360;2024-02-04T03:25:32;3.53;;;3.23;;
79128;SDS011;68529;43.286;23.360;2024-02-04T03:27:57;3.30;;;2.77;;
79128;SDS011;68529;43.286;23.360;2024-02-04T03:30:23;3.30;;;3.00;;
79128;SDS011;68529;43.286;23.360;2024-02-04T03:32:48;3.77;;;3.30;;
79128;SDS011;68529;43.286;23.360;2024-02-04T03:35:13;3.63;;;3.23;;
79128;SDS011;68529;43.286;23.360;2024-02-04T03:37:39;5.23;;;4.33;;
79128;SDS011;68529;43.286;23.360;2024-02-04T03:40:04;6.57;;;4.93;;
79128;SDS011;68529;43.286;23.360;2024-02-04T03:42:30;5.43;;;4.63;;
79128;SDS011;68529;43.286;23.360;2024-02-04T03:44:55;6.57;;;5.23;;
79128;SDS011;68529;43.286;23.360;2024-02-04T03:47:21;5.20;;;4.27;;
79128;SDS011;68529;43.286;23.360;2024-02-04T03:49:46;5.43;;;4.43;;
79128;SDS011;68529;43.286;23.360;2024-02-04T03:52:12;3.93;;;3.47;;
79128;SDS011;68529;43.286;23.360;2024-02-04T03:54:37;3.63;;;3.33;;
79128;SDS011;68529;43.286;23.360;2024-02-04T03:57:02;4.17;;;3.40;;
79128;SDS011;68529;43.286;23.360;2024-02-04T03:59:28;3.97;;;3.57;;
79128;SDS011;68529;43.286;23.360;2024-02-04T04:01:53;4.27;;;3.53;;
79128;SDS011;68529;43.286;23.360;2024-02-04T04:04:20;4.60;;;3.70;;
79128;SDS011;68529;43.286;23.360;2024-02-04T04:06:45;4.17;;;3.50;;
79128;SDS011;68529;43.286;23.360;2024-02-04T04:09:12;4.93;;;3.87;;
79128;SDS011;68529;43.286;23.360;2024-02-04T04:11:37;3.50;;;3.20;;
79128;SDS011;68529;43.286;23.360;2024-02-04T04:14:03;7.20;;;3.90;;
79128;SDS011;68529;43.286;23.360;2024-02-04T04:16:28;5.83;;;4.07;;
79128;SDS011;68529;43.286;23.360;2024-02-04T04:18:54;4.73;;;3.73;;
79128;SDS011;68529;43.286;23.360;2024-02-04T04:21:19;3.83;;;3.43;;
79128;SDS011;68529;43.286;23.360;2024-02-04T04:23:45;4.73;;;3.30;;
79128;SDS011;68529;43.286;23.360;2024-02-04T04:26:10;4.30;;;3.37;;
79128;SDS011;68529;43.286;23.360;2024-02-04T04:28:36;4.80;;;4.20;;
79128;SDS011;68529;43.286;23.360;2024-02-04T04:31:01;4.17;;;3.73;;
79128;SDS011;68529;43.286;23.360;2024-02-04T04:33:26;4.67;;;3.87;;
79128;SDS011;68529;43.286;23.360;2024-02-04T04:35:52;5.23;;;3.77;;
79128;SDS011;68529;43.286;23.360;2024-02-04T04:38:17;4.93;;;3.90;;
79128;SDS011;68529;43.286;23.360;2024-02-04T04:40:42;4.40;;;4.00;;
79128;SDS011;68529;43.286;23.360;2024-02-04T04:43:08;3.87;;;3.47;;
79128;SDS011;68529;43.286;23.360;2024-02-04T04:45:33;3.57;;;3.13;;
79128;SDS011;68529;43.286;23.360;2024-02-04T04:47:59;3.33;;;3.03;;
79128;SDS011;68529;43.286;23.360;2024-02-04T04:50:24;3.53;;;3.23;;
79128;SDS011;68529;43.286;23.360;2024-02-04T04:52:50;3.43;;;3.13;;
79128;SDS011;68529;43.286;23.360;2024-02-04T04:55:15;3.50;;;3.20;;
79128;SDS011;68529;43.286;23.360;2024-02-04T04:57:41;3.43;;;3.13;;
79128;SDS011;68529;43.286;23.360;2024-02-04T05:00:06;4.00;;;3.60;;
79128;SDS011;68529;43.286;23.360;2024-02-04T05:02:35;4.00;;;3.60;;
79128;SDS011;68529;43.286;23.360;2024-02-04T05:05:00;4.17;;;3.20;;
79128;SDS011;68529;43.286;23.360;2024-02-04T05:07:26;3.67;;;3.37;;
79128;SDS011;68529;43.286;23.360;2024-02-04T05:09:51;4.07;;;3.23;;
79128;SDS011;68529;43.286;23.360;2024-02-04T05:12:17;4.47;;;4.03;;
79128;SDS011;68529;43.286;23.360;2024-02-04T05:14:42;3.87;;;3.50;;
79128;SDS011;68529;43.286;23.360;2024-02-04T05:17:08;4.73;;;4.17;;
79128;SDS011;68529;43.286;23.360;2024-02-04T05:19:34;6.73;;;5.10;;
79128;SDS011;68529;43.286;23.360;2024-02-04T05:22:00;4.77;;;4.27;;
79128;SDS011;68529;43.286;23.360;2024-02-04T05:24:26;12.20;;;9.33;;
79128;SDS011;68529;43.286;23.360;2024-02-04T05:26:52;8.93;;;7.00;;
79128;SDS011;68529;43.286;23.360;2024-02-04T05:29:17;10.27;;;9.17;;
79128;SDS011;68529;43.286;23.360;2024-02-04T05:31:43;15.17;;;12.53;;
79128;SDS011;68529;43.286;23.360;2024-02-04T05:34:09;13.37;;;11.10;;
79128;SDS011;68529;43.286;23.360;2024-02-04T05:36:35;9.27;;;7.90;;
79128;SDS011;68529;43.286;23.360;2024-02-04T05:39:10;12.70;;;8.20;;
79128;SDS011;68529;43.286;23.360;2024-02-04T05:41:36;6.77;;;5.90;;
79128;SDS011;68529;43.286;23.360;2024-02-04T05:44:01;6.27;;;5.47;;
79128;SDS011;68529;43.286;23.360;2024-02-04T05:46:27;4.03;;;3.40;;
79128;SDS011;68529;43.286;23.360;2024-02-04T05:48:53;4.00;;;3.60;;
79128;SDS011;68529;43.286;23.360;2024-02-04T05:51:18;3.10;;;2.73;;
79128;SDS011;68529;43.286;23.360;2024-02-04T05:53:44;4.37;;;3.93;;
79128;SDS011;68529;43.286;23.360;2024-02-04T05:56:09;5.40;;;3.80;;
79128;SDS011;68529;43.286;23.360;2024-02-04T05:58:34;4.57;;;3.37;;
79128;SDS011;68529;43.286;23.360;2024-02-04T06:01:00;3.80;;;3.40;;
79128;SDS011;68529;43.286;23.360;2024-02-04T06:03:25;5.87;;;5.03;;
79128;SDS011;68529;43.286;23.360;2024-02-04T06:05:50;6.90;;;4.73;;
79128;SDS011;68529;43.286;23.360;2024-02-04T06:08:16;7.20;;;4.60;;
79128;SDS011;68529;43.286;23.360;2024-02-04T06:10:41;12.10;;;7.90;;
79128;SDS011;68529;43.286;23.360;2024-02-04T06:13:07;12.00;;;7.50;;
79128;SDS011;68529;43.286;23.360;2024-02-04T06:15:32;13.00;;;7.83;;
79128;SDS011;68529;43.286;23.360;2024-02-04T06:17:58;4.93;;;3.90;;
79128;SDS011;68529;43.286;23.360;2024-02-04T06:20:23;6.60;;;4.17;;
79128;SDS011;68529;43.286;23.360;2024-02-04T06:22:48;5.53;;;3.70;;
79128;SDS011;68529;43.286;23.360;2024-02-04T06:25:14;4.63;;;4.00;;
79128;SDS011;68529;43.286;23.360;2024-02-04T06:27:39;7.17;;;6.57;;
79128;SDS011;68529;43.286;23.360;2024-02-04T06:30:05;10.07;;;9.07;;
79128;SDS011;68529;43.286;23.360;2024-02-04T06:32:31;4.77;;;4.37;;
79128;SDS011;68529;43.286;23.360;2024-02-04T06:34:56;8.43;;;7.63;;
79128;SDS011;68529;43.286;23.360;2024-02-04T06:37:23;4.50;;;4.10;;
79128;SDS011;68529;43.286;23.360;2024-02-04T06:39:48;9.37;;;8.47;;
79128;SDS011;68529;43.286;23.360;2024-02-04T06:42:14;16.93;;;15.20;;
79128;SDS011;68529;43.286;23.360;2024-02-04T06:44:42;39.50;;;35.53;;
79128;SDS011;68529;43.286;23.360;2024-02-04T06:47:08;9.53;;;8.53;;
79128;SDS011;68529;43.286;23.360;2024-02-04T06:49:35;4.87;;;3.63;;
79128;SDS011;68529;43.286;23.360;2024-02-04T06:52:01;4.47;;;3.77;;
79128;SDS011;68529;43.286;23.360;2024-02-04T06:54:26;14.73;;;11.43;;
79128;SDS011;68529;43.286;23.360;2024-02-04T06:56:52;24.93;;;18.27;;
79128;SDS011;68529;43.286;23.360;2024-02-04T06:59:20;10.20;;;9.10;;
79128;SDS011;68529;43.286;23.360;2024-02-04T07:01:45;8.40;;;6.27;;
79128;SDS011;68529;43.286;23.360;2024-02-04T07:04:11;8.73;;;6.40;;
79128;SDS011;68529;43.286;23.360;2024-02-04T07:06:36;10.90;;;7.63;;
79128;SDS011;68529;43.286;23.360;2024-02-04T07:09:01;19.10;;;13.63;;
79128;SDS011;68529;43.286;23.360;2024-02-04T07:11:27;21.27;;;13.80;;
79128;SDS011;68529;43.286;23.360;2024-02-04T07:13:52;14.47;;;10.50;;
79128;SDS011;68529;43.286;23.360;2024-02-04T07:16:24;37.60;;;26.63;;
79128;SDS011;68529;43.286;23.360;2024-02-04T07:18:49;13.33;;;9.17;;
79128;SDS011;68529;43.286;23.360;2024-02-04T07:21:15;4.40;;;4.00;;
79128;SDS011;68529;43.286;23.360;2024-02-04T07:23:40;6.27;;;5.20;;
79128;SDS011;68529;43.286;23.360;2024-02-04T07:26:06;34.17;;;28.37;;
79128;SDS011;68529;43.286;23.360;2024-02-04T07:28:32;20.67;;;18.37;;
79128;SDS011;68529;43.286;23.360;2024-02-04T07:30:57;10.97;;;8.47;;
79128;SDS011;68529;43.286;23.360;2024-02-04T07:33:23;42.77;;;38.33;;
79128;SDS011;68529;43.286;23.360;2024-02-04T07:35:48;41.00;;;34.50;;
79128;SDS011;68529;43.286;23.360;2024-02-04T07:38:13;21.23;;;15.90;;
79128;SDS011;68529;43.286;23.360;2024-02-04T07:40:39;56.57;;;43.63;;
79128;SDS011;68529;43.286;23.360;2024-02-04T07:43:04;48.00;;;38.33;;
79128;SDS011;68529;43.286;23.360;2024-02-04T07:45:29;17.83;;;16.00;;
79128;SDS011;68529;43.286;23.360;2024-02-04T07:47:55;19.53;;;15.60;;
79128;SDS011;68529;43.286;23.360;2024-02-04T07:50:21;38.23;;;26.70;;
79128;SDS011;68529;43.286;23.360;2024-02-04T07:52:46;25.50;;;18.20;;
79128;SDS011;68529;43.286;23.360;2024-02-04T07:55:11;18.50;;;13.47;;
79128;SDS011;68529;43.286;23.360;2024-02-04T07:57:39;9.80;;;7.67;;
79128;SDS011;68529;43.286;23.360;2024-02-04T08:00:05;6.90;;;5.53;;
79128;SDS011;68529;43.286;23.360;2024-02-04T08:02:31;7.70;;;6.07;;
79128;SDS011;68529;43.286;23.360;2024-02-04T08:04:56;5.27;;;4.77;;
79128;SDS011;68529;43.286;23.360;2024-02-04T08:07:22;7.03;;;5.60;;
79128;SDS011;68529;43.286;23.360;2024-02-04T08:09:47;11.90;;;9.70;;
79128;SDS011;68529;43.286;23.360;2024-02-04T08:12:15;7.57;;;5.33;;
79128;SDS011;68529;43.286;23.360;2024-02-04T08:14:41;5.23;;;4.73;;
79128;SDS011;68529;43.286;23.360;2024-02-04T08:17:06;5.37;;;4.07;;
79128;SDS011;68529;43.286;23.360;2024-02-04T08:19:31;3.53;;;3.07;;
79128;SDS011;68529;43.286;23.360;2024-02-04T08:21:57;3.13;;;2.90;;
79128;SDS011;68529;43.286;23.360;2024-02-04T08:24:23;4.23;;;3.33;;
79128;SDS011;68529;43.286;23.360;2024-02-04T08:26:49;3.70;;;2.60;;
79128;SDS011;68529;43.286;23.360;2024-02-04T08:29:14;2.60;;;2.40;;
79128;SDS011;68529;43.286;23.360;2024-02-04T08:31:40;2.10;;;1.90;;
79128;SDS011;68529;43.286;23.360;2024-02-04T08:34:05;3.07;;;2.77;;
79128;SDS011;68529;43.286;23.360;2024-02-04T08:36:32;2.20;;;2.00;;
79128;SDS011;68529;43.286;23.360;2024-02-04T08:38:57;1.70;;;1.60;;
79128;SDS011;68529;43.286;23.360;2024-02-04T08:41:23;1.80;;;1.70;;
79128;SDS011;68529;43.286;23.360;2024-02-04T08:43:49;5.33;;;4.13;;
79128;SDS011;68529;43.286;23.360;2024-02-04T08:46:14;6.03;;;5.43;;
79128;SDS011;68529;43.286;23.360;2024-02-04T08:48:41;9.33;;;4.83;;
79128;SDS011;68529;43.286;23.360;2024-02-04T08:51:10;2.20;;;2.00;;
79128;SDS011;68529;43.286;23.360;2024-02-04T08:53:37;2.63;;;2.43;;
79128;SDS011;68529;43.286;23.360;2024-02-04T08:56:02;4.63;;;3.87;;
79128;SDS011;68529;43.286;23.360;2024-02-04T08:58:27;3.00;;;2.40;;
79128;SDS011;68529;43.286;23.360;2024-02-04T09:00:53;1.87;;;1.27;;
79128;SDS011;68529;43.286;23.360;2024-02-04T09:03:18;1.50;;;1.40;;
79128;SDS011;68529;43.286;23.360;2024-02-04T09:05:43;1.97;;;1.87;;
79128;SDS011;68529;43.286;23.360;2024-02-04T09:08:09;2.73;;;2.37;;
79128;SDS011;68529;43.286;23.360;2024-02-04T09:10:35;1.67;;;1.40;;
79128;SDS011;68529;43.286;23.360;2024-02-04T09:13:01;2.30;;;2.10;;
79128;SDS011;68529;43.286;23.360;2024-02-04T09:15:26;4.67;;;3.30;;
79128;SDS011;68529;43.286;23.360;2024-02-04T09:17:52;2.50;;;2.30;;
79128;SDS011;68529;43.286;23.360;2024-02-04T09:20:17;1.83;;;1.60;;
79128;SDS011;68529;43.286;23.360;2024-02-04T09:22:42;1.10;;;1.00;;
79128;SDS011;68529;43.286;23.360;2024-02-04T09:25:08;2.43;;;1.50;;
79128;SDS011;68529;43.286;23.360;2024-02-04T09:27:33;2.27;;;2.07;;
79128;SDS011;68529;43.286;23.360;2024-02-04T09:29:59;1.93;;;1.83;;
79128;SDS011;68529;43.286;23.360;2024-02-04T09:32:24;1.00;;;0.90;;
79128;SDS011;68529;43.286;23.360;2024-02-04T09:34:50;1.00;;;1.00;;
79128;SDS011;68529;43.286;23.360;2024-02-04T09:37:15;4.00;;;3.10;;
79128;SDS011;68529;43.286;23.360;2024-02-04T09:39:41;3.30;;;2.90;;
79128;SDS011;68529;43.286;23.360;2024-02-04T09:42:06;2.83;;;2.47;;
79128;SDS011;68529;43.286;23.360;2024-02-04T09:44:32;3.00;;;2.73;;
79128;SDS011;68529;43.286;23.360;2024-02-04T09:46:58;1.80;;;1.70;;
79128;SDS011;68529;43.286;23.360;2024-02-04T09:49:26;2.90;;;1.97;;
79128;SDS011;68529;43.286;23.360;2024-02-04T09:51:52;2.40;;;2.20;;
79128;SDS011;68529;43.286;23.360;2024-02-04T09:54:19;2.70;;;2.40;;
79128;SDS011;68529;43.286;23.360;2024-02-04T09:56:46;3.20;;;2.70;;
79128;SDS011;68529;43.286;23.360;2024-02-04T09:59:12;4.13;;;2.40;;
79128;SDS011;68529;43.286;23.360;2024-02-04T10:01:38;2.70;;;2.23;;
79128;SDS011;68529;43.286;23.360;2024-02-04T10:04:04;1.90;;;1.80;;
79128;SDS011;68529;43.286;23.360;2024-02-04T10:06:30;1.87;;;1.70;;
79128;SDS011;68529;43.286;23.360;2024-02-04T10:08:55;2.17;;;1.97;;
79128;SDS011;68529;43.286;23.360;2024-02-04T10:11:21;1.53;;;1.43;;
79128;SDS011;68529;43.286;23.360;2024-02-04T10:13:48;1.70;;;1.60;;
79128;SDS011;68529;43.286;23.360;2024-02-04T10:16:14;1.77;;;1.67;;
79128;SDS011;68529;43.286;23.360;2024-02-04T10:18:41;3.17;;;2.90;;
79128;SDS011;68529;43.286;23.360;2024-02-04T10:21:14;1.80;;;1.70;;
79128;SDS011;68529;43.286;23.360;2024-02-04T10:23:42;2.57;;;2.00;;
79128;SDS011;68529;43.286;23.360;2024-02-04T10:26:07;2.20;;;2.00;;
79128;SDS011;68529;43.286;23.360;2024-02-04T10:28:32;1.70;;;1.60;;
79128;SDS011;68529;43.286;23.360;2024-02-04T10:30:58;3.90;;;3.13;;
79128;SDS011;68529;43.286;23.360;2024-02-04T10:33:23;2.23;;;2.03;;
79128;SDS011;68529;43.286;23.360;2024-02-04T10:35:49;1.87;;;1.60;;
79128;SDS011;68529;43.286;23.360;2024-02-04T10:38:14;2.20;;;2.00;;
79128;SDS011;68529;43.286;23.360;2024-02-04T10:40:39;2.00;;;1.73;;
79128;SDS011;68529;43.286;23.360;2024-02-04T10:43:05;2.73;;;1.53;;
79128;SDS011;68529;43.286;23.360;2024-02-04T10:45:32;1.50;;;1.30;;
79128;SDS011;68529;43.286;23.360;2024-02-04T10:48:00;3.17;;;2.07;;
79128;SDS011;68529;43.286;23.360;2024-02-04T10:50:26;1.50;;;1.40;;
79128;SDS011;68529;43.286;23.360;2024-02-04T10:52:54;1.60;;;1.50;;
79128;SDS011;68529;43.286;23.360;2024-02-04T10:55:26;2.97;;;2.60;;
79128;SDS011;68529;43.286;23.360;2024-02-04T10:57:54;2.30;;;2.10;;
79128;SDS011;68529;43.286;23.360;2024-02-04T11:00:20;2.67;;;2.27;;
79128;SDS011;68529;43.286;23.360;2024-02-04T11:02:46;12.20;;;2.87;;
79128;SDS011;68529;43.286;23.360;2024-02-04T11:05:14;5.00;;;2.17;;
79128;SDS011;68529;43.286;23.360;2024-02-04T11:07:43;1.90;;;1.30;;
79128;SDS011;68529;43.286;23.360;2024-02-04T11:10:10;1.17;;;1.03;;
79128;SDS011;68529;43.286;23.360;2024-02-04T11:12:35;1.50;;;1.33;;
79128;SDS011;68529;43.286;23.360;2024-02-04T11:15:04;1.37;;;1.27;;
79128;SDS011;68529;43.286;23.360;2024-02-04T11:23:35;3.80;;;3.50;;
79128;SDS011;68529;43.286;23.360;2024-02-04T11:26:13;1.60;;;1.50;;
79128;SDS011;68529;43.286;23.360;2024-02-04T11:28:41;4.03;;;3.73;;
79128;SDS011;68529;43.286;23.360;2024-02-04T11:31:19;4.60;;;3.30;;
79128;SDS011;68529;43.286;23.360;2024-02-04T11:33:45;2.93;;;2.73;;
79128;SDS011;68529;43.286;23.360;2024-02-04T11:36:14;4.07;;;3.63;;
79128;SDS011;68529;43.286;23.360;2024-02-04T11:38:40;2.87;;;2.60;;
79128;SDS011;68529;43.286;23.360;2024-02-04T11:41:06;4.50;;;3.87;;
79128;SDS011;68529;43.286;23.360;2024-02-04T11:43:33;2.73;;;2.30;;
79128;SDS011;68529;43.286;23.360;2024-02-04T11:45:59;2.97;;;2.70;;
79128;SDS011;68529;43.286;23.360;2024-02-04T11:48:28;4.13;;;2.73;;
79128;SDS011;68529;43.286;23.360;2024-02-04T11:50:57;4.90;;;2.80;;
79128;SDS011;68529;43.286;23.360;2024-02-04T11:53:24;2.50;;;2.30;;
79128;SDS011;68529;43.286;23.360;2024-02-04T11:55:54;2.20;;;2.10;;
79128;SDS011;68529;43.286;23.360;2024-02-04T11:58:19;2.47;;;2.27;;
79128;SDS011;68529;43.286;23.360;2024-02-04T12:00:45;3.30;;;3.00;;
79128;SDS011;68529;43.286;23.360;2024-02-04T12:03:10;4.17;;;3.33;;
79128;SDS011;68529;43.286;23.360;2024-02-04T12:05:37;4.07;;;3.67;;
79128;SDS011;68529;43.286;23.360;2024-02-04T12:08:07;2.17;;;2.07;;
79128;SDS011;68529;43.286;23.360;2024-02-04T12:10:33;1.83;;;1.73;;
79128;SDS011;68529;43.286;23.360;2024-02-04T12:13:03;2.67;;;2.47;;
79128;SDS011;68529;43.286;23.360;2024-02-04T12:15:29;2.40;;;2.20;;
79128;SDS011;68529;43.286;23.360;2024-02-04T12:17:55;3.57;;;3.23;;
79128;SDS011;68529;43.286;23.360;2024-02-04T12:20:29;2.30;;;1.50;;
79128;SDS011;68529;43.286;23.360;2024-02-04T12:22:55;1.60;;;1.50;;
79128;SDS011;68529;43.286;23.360;2024-02-04T12:25:20;2.90;;;2.20;;
79128;SDS011;68529;43.286;23.360;2024-02-04T12:27:46;1.70;;;1.60;;
79128;SDS011;68529;43.286;23.360;2024-02-04T12:30:13;2.30;;;2.13;;
79128;SDS011;68529;43.286;23.360;2024-02-04T12:32:39;2.40;;;1.30;;
79128;SDS011;68529;43.286;23.360;2024-02-04T12:35:05;1.43;;;1.33;;
79128;SDS011;68529;43.286;23.360;2024-02-04T12:37:31;2.23;;;2.03;;
79128;SDS011;68529;43.286;23.360;2024-02-04T12:39:59;1.30;;;1.20;;
79128;SDS011;68529;43.286;23.360;2024-02-04T12:42:24;2.63;;;2.30;;
79128;SDS011;68529;43.286;23.360;2024-02-04T12:44:50;2.63;;;2.43;;
79128;SDS011;68529;43.286;23.360;2024-02-04T12:47:20;2.93;;;1.83;;
79128;SDS011;68529;43.286;23.360;2024-02-04T12:49:45;3.03;;;2.20;;
79128;SDS011;68529;43.286;23.360;2024-02-04T12:52:11;2.27;;;2.07;;
79128;SDS011;68529;43.286;23.360;2024-02-04T12:54:40;3.57;;;1.57;;
79128;SDS011;68529;43.286;23.360;2024-02-04T12:57:09;1.33;;;1.23;;
79128;SDS011;68529;43.286;23.360;2024-02-04T12:59:38;1.50;;;1.40;;
79128;SDS011;68529;43.286;23.360;2024-02-04T13:02:05;1.63;;;1.40;;
79128;SDS011;68529;43.286;23.360;2024-02-04T13:04:35;1.40;;;1.30;;
79128;SDS011;68529;43.286;23.360;2024-02-04T13:07:11;3.33;;;2.17;;
79128;SDS011;68529;43.286;23.360;2024-02-04T13:09:39;24.90;;;14.83;;
79128;SDS011;68529;43.286;23.360;2024-02-04T13:12:05;8.67;;;5.30;;
79128;SDS011;68529;43.286;23.360;2024-02-04T13:14:33;2.30;;;2.10;;
79128;SDS011;68529;43.286;23.360;2024-02-04T13:16:59;3.20;;;2.80;;
79128;SDS011;68529;43.286;23.360;2024-02-04T13:19:24;2.83;;;2.63;;
79128;SDS011;68529;43.286;23.360;2024-02-04T13:21:50;7.80;;;5.10;;
79128;SDS011;68529;43.286;23.360;2024-02-04T13:24:15;2.13;;;1.80;;
79128;SDS011;68529;43.286;23.360;2024-02-04T13:26:40;4.23;;;2.90;;
79128;SDS011;68529;43.286;23.360;2024-02-04T13:29:06;6.87;;;5.37;;
79128;SDS011;68529;43.286;23.360;2024-02-04T13:31:31;2.70;;;2.20;;
79128;SDS011;68529;43.286;23.360;2024-02-04T13:33:57;4.67;;;2.53;;
79128;SDS011;68529;43.286;23.360;2024-02-04T13:36:23;2.93;;;1.83;;
79128;SDS011;68529;43.286;23.360;2024-02-04T13:38:48;4.00;;;2.37;;
79128;SDS011;68529;43.286;23.360;2024-02-04T13:41:14;2.90;;;2.50;;
79128;SDS011;68529;43.286;23.360;2024-02-04T13:43:39;3.83;;;3.37;;
79128;SDS011;68529;43.286;23.360;2024-02-04T13:46:05;3.23;;;2.93;;
79128;SDS011;68529;43.286;23.360;2024-02-04T13:48:30;2.53;;;2.23;;
79128;SDS011;68529;43.286;23.360;2024-02-04T13:50:56;2.50;;;2.30;;
79128;SDS011;68529;43.286;23.360;2024-02-04T13:53:21;2.87;;;2.63;;
79128;SDS011;68529;43.286;23.360;2024-02-04T13:55:48;4.93;;;2.47;;
79128;SDS011;68529;43.286;23.360;2024-02-04T13:58:14;2.20;;;1.60;;
79128;SDS011;68529;43.286;23.360;2024-02-04T14:00:40;3.00;;;1.90;;
79128;SDS011;68529;43.286;23.360;2024-02-04T14:03:05;1.70;;;1.60;;
79128;SDS011;68529;43.286;23.360;2024-02-04T14:05:31;1.77;;;1.67;;
79128;SDS011;68529;43.286;23.360;2024-02-04T14:07:57;2.10;;;1.93;;
79128;SDS011;68529;43.286;23.360;2024-02-04T14:10:23;1.03;;;0.87;;
79128;SDS011;68529;43.286;23.360;2024-02-04T14:12:48;1.50;;;1.40;;
79128;SDS011;68529;43.286;23.360;2024-02-04T14:15:16;1.90;;;1.80;;
79128;SDS011;68529;43.286;23.360;2024-02-04T14:17:45;1.77;;;1.67;;
79128;SDS011;68529;43.286;23.360;2024-02-04T14:20:10;1.43;;;1.30;;
79128;SDS011;68529;43.286;23.360;2024-02-04T14:22:42;1.83;;;1.73;;
79128;SDS011;68529;43.286;23.360;2024-02-04T14:25:10;1.50;;;1.40;;
79128;SDS011;68529;43.286;23.360;2024-02-04T14:27:45;4.70;;;3.03;;
79128;SDS011;68529;43.286;23.360;2024-02-04T14:30:11;2.57;;;1.27;;
79128;SDS011;68529;43.286;23.360;2024-02-04T14:32:43;1.13;;;1.13;;
79128;SDS011;68529;43.286;23.360;2024-02-04T14:35:12;1.73;;;1.63;;
79128;SDS011;68529;43.286;23.360;2024-02-04T14:37:40;3.57;;;3.27;;